Weather observations for the past three days for
Hearne, Hearne Municipal Airport
| Date | Time (cdt) | Wind (kph) | Vis. (km) | Weather | Sky Cond. | Temperature (ºC) | Relative Humidity | Wind Chill (°C) | Heat Index (°C) | Pressure | Precipitation (cm) | ||||||
|---|---|---|---|---|---|---|---|---|---|---|---|---|---|---|---|---|---|
| Air | Dwpt | 6 hour | altimeter (cm) | sea level (mb) | 1 hr | 3 hr | 6 hr | ||||||||||
| Max. | Min. | ||||||||||||||||
| 07 | 16:55 | N 17 | 16.09 | Fair | CLR | 19 | 14 | 73% | 76.2 | 0.0 | |||||||
| 07 | 16:35 | N 11 | 16.09 | Fair | CLR | 19 | 13 | 68% | 76.2 | 0.0 | |||||||
| 07 | 16:16 | N 11 | 16.09 | Fair | CLR | 19 | 13 | 68% | 76.23 | 0.0 | |||||||
| 07 | 15:55 | N 20 | 16.09 | Fair | CLR | 19 | 13 | 68% | 76.23 | 0.0 | |||||||
| 07 | 15:36 | NE 15 | 16.09 | Fair | CLR | 19 | 12 | 64% | 76.17 | 0.0 | |||||||
| 07 | 15:15 | NE 15 | 16.09 | Fair | CLR | 19 | 13 | 68% | 76.2 | 0.0 | |||||||
| 07 | 14:35 | Vrbl 11 | 16.09 | Fair | CLR | 19 | 13 | 68% | 76.28 | 0.0 | |||||||
| 07 | 14:15 | Vrbl 7 | 3.22 | Light Rain Haze | CLR | 19 | 13 | 68% | 76.33 | 0.0 | |||||||
| 07 | 13:55 | NW 9 | 0.40 | Drizzle Haze | VV002 | 18 | 12 | 68% | 76.33 | 0.0 | |||||||
| 07 | 13:35 | Vrbl 6 | 1.61 | Light Drizzle Haze | CLR | 19 | 12 | 64% | 76.3 | 0.0 | |||||||
| 07 | 13:15 | N 6 | 0.24 | Light Rain Haze | VV000 | 18 | 12 | 68% | 76.33 | 0.0 | |||||||
| 07 | 12:55 | NE 9 | 0.80 | Light Drizzle Haze | VV005 | 18 | 12 | 18.1 | 14.1 | 68% | 76.33 | 0.0 | |||||
| 07 | 12:15 | N 13 | 0.80 | Light Rain Haze | VV005 | 17 | 11 | 68% | 76.33 | 0.0 | |||||||
| 07 | 11:55 | N 11 | 1.61 | Light Drizzle Haze | VV005 | 17 | 11 | 68% | 76.33 | 0.0 | |||||||
| 07 | 11:36 | N 11 | 1.21 | Light Drizzle Haze | CLR | 17 | 11 | 68% | 76.4 | 0.0 | |||||||
| 07 | 10:55 | Vrbl 11 | 2.01 | Light Drizzle Haze | CLR | 16 | 11 | 72% | 76.38 | 0.0 | |||||||
| 07 | 10:35 | N 22 G 31 | 2.82 | Light Drizzle Haze | CLR | 16 | 11 | 72% | 76.33 | 0.0 | |||||||
| 07 | 10:15 | N 24 G 31 | 3.22 | Light Rain Haze | CLR | 16 | 11 | 72% | 76.33 | 0.0 | |||||||
| 07 | 09:55 | N 20 | 2.41 | Light Drizzle Haze | CLR | 16 | 11 | 72% | 76.38 | 0.0 | |||||||
| 07 | 09:35 | NE 22 | 6.44 | Fair with Haze | CLR | 16 | 11 | 72% | 76.33 | 0.0 | |||||||
| 07 | 09:15 | N 19 | 4.02 | Light Rain Haze | CLR | 16 | 12 | 77% | 76.35 | 0.0 | |||||||
| 07 | 08:55 | N 20 | 4.83 | Mostly Cloudy with Haze | FEW022 BKN040 | 15 | 12 | 82% | 76.38 | 0.0 | |||||||
| 07 | 08:35 | N 19 | 1.21 | Light Rain Haze | SCT017 BKN024 OVC038 | 15 | 12 | 82% | 76.43 | 0.0 | |||||||
| 07 | 08:15 | N 20 G 28 | 2.41 | Light Rain Haze | FEW015 OVC036 | 15 | 12 | 82% | 76.38 | 0.0 | |||||||
| 07 | 07:55 | N 15 | 2.01 | Light Rain Fog/Mist | BKN015 BKN022 OVC034 | 14 | 12 | 88% | 76.38 | 0.0 | |||||||
| 07 | 07:35 | N 15 | 3.22 | Light Rain Fog/Mist | OVC013 | 14 | 12 | 88% | 76.35 | 0.0 | |||||||
| 07 | 07:15 | N 15 | 1.21 | Light Drizzle Fog/Mist | OVC013 | 14 | 12 | 88% | 76.33 | 0.0 | |||||||
| 07 | 06:55 | N 22 | 0.40 | Light Rain Fog | OVC013 | 14 | 12 | 16.4 | 14.3 | 88% | 76.33 | 0.0 | |||||
| 07 | 06:35 | N 24 | 2.41 | Light Rain Fog/Mist | OVC013 | 15 | 13 | 88% | 76.28 | 0.0 | |||||||
| 07 | 05:55 | N 20 | 2.01 | Light Rain Fog/Mist | OVC013 | 15 | 14 | 94% | 76.28 | 0.0 | |||||||
| 07 | 05:35 | N 17 | 0.40 | Light Rain Fog | OVC013 | 16 | 14 | 88% | 76.28 | 0.0 | |||||||
| 07 | 05:13 | NW 19 | 0.24 | Light Rain Fog | OVC013 | 16 | 14 | 88% | 76.25 | 0.0 | |||||||
| 07 | 04:55 | N 15 | 0.40 | Light Rain Fog | OVC013 | 16 | 14 | 88% | 76.2 | 0.0 | |||||||
| 07 | 04:35 | NW 13 | 0.40 | Light Rain Fog | OVC013 | 16 | 14 | 88% | 76.17 | 0.0 | |||||||
| 07 | 04:15 | NW 13 | 0.80 | Drizzle Fog | OVC011 | 16 | 15 | 94% | 76.15 | 0.0 | |||||||
| 07 | 03:55 | N 9 | 2.82 | Fog/Mist | OVC011 | 16 | 15 | 94% | 76.12 | 0.0 | |||||||
| 07 | 03:35 | N 9 | 2.01 | Fog/Mist | OVC011 | 16 | 15 | 94% | 76.1 | 0.0 | |||||||
| 07 | 03:15 | NE 11 | 16.09 | Overcast | OVC011 | 16 | 15 | 94% | 76.1 | 0.0 | |||||||
| 07 | 02:56 | NE 11 | 14.48 | Overcast | OVC011 | 16 | 14 | 88% | 76.15 | 0.0 | |||||||
| 07 | 02:35 | N 20 G 26 | 16.09 | Overcast | OVC009 | 16 | 15 | 94% | 76.07 | 0.0 | |||||||
| 07 | 02:15 | NE 15 | 16.09 | Overcast | OVC009 | 16 | 15 | 94% | 76.15 | 0.0 | |||||||
| 07 | 01:55 | NE 19 G 26 | 16.09 | Overcast | OVC011 | 16 | 15 | 94% | 76.15 | 0.0 | |||||||
| 07 | 01:35 | N 17 G 31 | 16.09 | Overcast | OVC011 | 16 | 15 | 94% | 76.12 | 0.0 | |||||||
| 07 | 01:15 | NE 17 | 16.09 | Overcast | OVC011 | 16 | 15 | 94% | 76.12 | 0.0 | |||||||
| 07 | 00:56 | N 20 G 28 | 16.09 | Overcast | OVC013 | 16 | 15 | 94% | 76.15 | 0.0 | |||||||
| 07 | 00:35 | N 19 G 30 | 8.05 | Fog/Mist | OVC013 | 17 | 15 | 88% | 76.17 | 0.0 | |||||||
| 07 | 00:15 | N 24 | 9.66 | Fog/Mist | OVC015 | 17 | 15 | 88% | 76.12 | 0.0 | |||||||
| 06 | 23:55 | N 17 | 8.05 | Fog/Mist | OVC015 | 17 | 15 | 88% | 76.17 | 0.0 | |||||||
| 06 | 23:35 | N 13 | 8.05 | Overcast with Haze | SCT015 OVC023 | 17 | 15 | 88% | 76.17 | 0.0 | |||||||
| 06 | 23:15 | N 19 | 12.87 | Overcast | BKN017 OVC023 | 17 | 15 | 88% | 76.15 | 0.0 | |||||||
| 06 | 22:55 | N 20 | 9.66 | Fog/Mist | OVC017 | 17 | 14 | 83% | 76.12 | 0.0 | |||||||
| 06 | 22:35 | N 19 | 16.09 | Overcast | OVC017 | 17 | 15 | 88% | 76.15 | 0.0 | |||||||
| 06 | 22:15 | N 19 | 16.09 | Overcast | OVC017 | 17 | 14 | 83% | 76.1 | 0.0 | |||||||
| 06 | 21:55 | N 19 G 31 | 16.09 | Overcast | OVC017 | 17 | 15 | 88% | 76.07 | 0.0 | |||||||
| 06 | 21:35 | N 17 | 16.09 | Overcast | OVC019 | 17 | 15 | 88% | 76.1 | 0.0 | |||||||
| 06 | 21:15 | N 15 | 16.09 | Overcast | OVC017 | 17 | 15 | 88% | 76.05 | 0.0 | |||||||
| 06 | 20:55 | N 20 | 16.09 | Overcast | BKN017 OVC029 | 17 | 15 | 88% | 76.02 | 0.0 | |||||||
| 06 | 20:35 | N 7 | 16.09 | Overcast | OVC017 | 17 | 15 | 88% | 76 | 0.0 | |||||||
| 06 | 20:15 | N 17 | 16.09 | Overcast | OVC017 | 17 | 15 | 88% | 75.97 | 0.0 | |||||||
| 06 | 19:56 | N 19 | 16.09 | Overcast | BKN017 OVC021 | 17 | 15 | 88% | 75.95 | 0.0 | |||||||
| 06 | 19:35 | N 17 G 28 | 16.09 | Overcast | OVC021 | 18 | 15 | 83% | 75.92 | 0.0 | |||||||
| 06 | 19:15 | N 20 | 16.09 | Overcast | OVC021 | 18 | 15 | 83% | 75.92 | 0.0 | |||||||
| 06 | 18:55 | N 20 G 30 | 16.09 | Overcast | OVC021 | 18 | 15 | 24.9 | 17.6 | 83% | 75.9 | 0.0 | |||||
| 06 | 18:35 | N 26 | 16.09 | Overcast | OVC021 | 18 | 15 | 83% | 75.9 | 0.0 | |||||||
| 06 | 18:15 | N 26 | 16.09 | Overcast | OVC019 | 18 | 15 | 83% | 75.87 | 0.0 | |||||||
| 06 | 17:55 | NW 20 G 28 | 9.66 | Light Rain Haze | OVC019 | 18 | 15 | 83% | 75.9 | 0.0 | |||||||
| 06 | 17:35 | N 20 | 16.09 | Overcast | OVC021 | 18 | 15 | 83% | 75.87 | 0.0 | |||||||
| 06 | 17:15 | NW 24 | 16.09 | Overcast | OVC023 | 19 | 15 | 78% | 75.87 | 0.0 | |||||||
| 06 | 16:55 | NW 24 G 31 | 9.66 | Light Rain Haze | OVC023 | 20 | 15 | 73% | 75.87 | 0.0 | |||||||
| 06 | 16:35 | N 26 | 14.48 | Overcast | OVC023 | 20 | 15 | 73% | 75.87 | 0.0 | |||||||
| 06 | 16:15 | NW 24 | 9.66 | Light Rain Haze | OVC023 | 20 | 16 | 78% | 75.87 | 0.0 | |||||||
| 06 | 15:55 | NW 22 | 16.09 | Light Rain | OVC023 | 21 | 16 | 73% | 75.87 | 0.0 | |||||||
| 06 | 15:35 | NW 20 | 11.27 | Light Rain | OVC023 | 20 | 16 | 78% | 75.87 | 0.0 | |||||||
| 06 | 15:15 | NW 26 G 33 | 9.66 | Light Rain Haze | OVC023 | 21 | 16 | 73% | 75.84 | 0.0 | |||||||
| 06 | 14:55 | NW 24 | 9.66 | Light Rain Haze | OVC023 | 22 | 17 | 73% | 75.84 | 0.0 | |||||||
| 06 | 14:35 | NW 22 G 31 | 4.83 | Light Rain Haze | OVC021 | 23 | 18 | 74% | 75.82 | 0.0 | |||||||
| 06 | 14:15 | NW 19 | 3.22 | Light Rain Haze | OVC019 | 24 | 19 | 74% | 25 | 75.82 | 0.0 | ||||||
| 06 | 13:55 | NW 17 | 16.09 | Mostly Cloudy | BKN019 | 24 | 19 | 74% | 25 | 75.82 | 0.0 | ||||||
| 06 | 13:35 | Calm | 16.09 | Fair | CLR | 23 | 18 | 74% | 75.79 | 0.0 | |||||||
| 06 | 13:15 | Vrbl 7 | 16.09 | Fair | CLR | 22 | 18 | 78% | 75.79 | 0.0 | |||||||
| 06 | 12:55 | E 15 | 16.09 | Fair | CLR | 21 | 17 | 26.2 | 16.3 | 78% | 75.79 | 0.0 | |||||
| 06 | 12:35 | NE 13 | 16.09 | A Few Clouds | FEW011 FEW016 | 19 | 16 | 83% | 75.84 | 0.0 | |||||||
| 06 | 12:15 | E 11 | 4.83 | Mostly Cloudy with Haze | BKN009 BKN015 | 18 | 16 | 88% | 75.9 | 0.0 | |||||||
| 06 | 11:55 | N 20 | 16.09 | Overcast | OVC009 | 17 | 15 | 88% | 75.97 | 0.0 | |||||||
| 06 | 11:35 | N 20 | 16.09 | Overcast | OVC009 | 17 | 16 | 94% | 76.02 | 0.0 | |||||||
| 06 | 11:15 | N 31 | 14.48 | Overcast | OVC009 | 17 | 16 | 94% | 76.02 | 0.0 | |||||||
| 06 | 10:55 | N 30 G 48 | 12.87 | Overcast | OVC009 | 17 | 16 | 94% | 75.97 | 0.0 | |||||||
| 06 | 10:35 | N 24 G 33 | 14.48 | Overcast | OVC009 | 19 | 18 | 94% | 75.9 | 0.0 | |||||||
| 06 | 10:15 | NW 20 G 41 | 14.48 | Overcast | BKN009 OVC012 | 20 | 19 | 94% | 75.84 | 0.0 | |||||||
| 06 | 09:55 | NW 28 G 39 | 0.24 | Light Rain Fog | OVC012 | 23 | 21 | 89% | 75.79 | 0.0 | |||||||
| 06 | 09:35 | S 6 | 8.05 | Fog/Mist | BKN031 BKN040 OVC050 | 26 | 24 | 89% | 28 | 75.77 | 0.0 | ||||||
| 06 | 09:15 | S 7 | 11.27 | Fog/Mist | SCT031 BKN036 OVC060 | 26 | 24 | 89% | 28 | 75.77 | 0.0 | ||||||
| 06 | 08:55 | S 9 | 11.27 | Fog/Mist | BKN036 OVC060 | 26 | 24 | 89% | 28 | 75.74 | 0.0 | ||||||
| 06 | 08:35 | S 6 | 11.27 | Fog/Mist | FEW034 BKN060 | 25 | 24 | 94% | 26 | 75.72 | 0.0 | ||||||
| 06 | 08:15 | SE 6 | 11.27 | Fog/Mist | BKN060 | 25 | 24 | 94% | 26 | 75.72 | 0.0 | ||||||
| 06 | 07:55 | SE 6 | 9.66 | Fog/Mist | FEW060 | 24 | 24 | 100% | 23 | 75.72 | 0.0 | ||||||
| 06 | 07:35 | SE 6 | 9.66 | Fog/Mist | SCT060 | 24 | 24 | 100% | 23 | 75.72 | 0.0 | ||||||
| 06 | 07:16 | SE 6 | 9.66 | Fog/Mist | FEW030 BKN060 | 24 | 24 | 100% | 23 | 75.69 | 0.0 | ||||||
| 06 | 06:55 | E 6 | 9.66 | Fog/Mist | BKN030 OVC060 | 24 | 23 | 24.3 | 23.2 | 94% | 23 | 75.72 | 0.0 | ||||
| 06 | 06:35 | SE 6 | 9.66 | Fog/Mist | SCT018 BKN030 OVC055 | 24 | 24 | 100% | 23 | 75.69 | 0.0 | ||||||
| 06 | 06:15 | SE 6 | 9.66 | Fog/Mist | SCT027 BKN032 OVC055 | 24 | 24 | 100% | 23 | 75.69 | 0.0 | ||||||
| 06 | 05:55 | SE 4 | 11.27 | Fog/Mist | OVC027 | 24 | 24 | 100% | 23 | 75.67 | 0.0 | ||||||
| 06 | 05:35 | S 4 | 9.66 | Fog/Mist | SCT017 OVC025 | 24 | 24 | 100% | 23 | 75.64 | 0.0 | ||||||
| 06 | 05:15 | SE 4 | 11.27 | Fog/Mist | BKN015 OVC021 | 24 | 23 | 94% | 23 | 75.64 | 0.0 | ||||||
| 06 | 04:55 | Vrbl 4 | 11.27 | Fog/Mist | BKN015 OVC021 | 24 | 24 | 100% | 23 | 75.62 | 0.0 | ||||||
| 06 | 04:35 | Vrbl 2 | 11.27 | Fog/Mist | OVC013 | 24 | 24 | 100% | 23 | 75.62 | 0.0 | ||||||
| 06 | 04:15 | SE 6 | 11.27 | Fog/Mist | OVC015 | 24 | 24 | 100% | 23 | 75.62 | 0.0 | ||||||
| 06 | 03:56 | SE 6 | 11.27 | Fog/Mist | BKN013 OVC018 | 24 | 24 | 100% | 23 | 75.62 | 0.0 | ||||||
| 06 | 03:35 | Vrbl 4 | 11.27 | Fog/Mist | BKN013 OVC019 | 24 | 24 | 100% | 23 | 75.62 | 0.0 | ||||||
| 06 | 03:15 | S 4 | 11.27 | Fog/Mist | BKN015 OVC019 | 24 | 23 | 94% | 23 | 75.62 | 0.0 | ||||||
| 06 | 02:55 | S 6 | 11.27 | Fog/Mist | OVC013 | 24 | 23 | 94% | 23 | 75.62 | 0.0 | ||||||
| 06 | 02:36 | SE 7 | 11.27 | Fog/Mist | OVC013 | 24 | 23 | 94% | 23 | 75.62 | 0.0 | ||||||
| 06 | 02:15 | SE 9 | 11.27 | Fog/Mist | OVC013 | 24 | 23 | 94% | 23 | 75.62 | 0.0 | ||||||
| 06 | 01:55 | SE 9 | 11.27 | Fog/Mist | OVC013 | 24 | 23 | 94% | 23 | 75.62 | 0.0 | ||||||
| 06 | 01:35 | SE 9 | 11.27 | Fog/Mist | BKN013 | 23 | 23 | 100% | 75.62 | 0.0 | |||||||
| 06 | 01:15 | SE 9 | 11.27 | Fog/Mist | CLR | 23 | 23 | 100% | 75.62 | 0.0 | |||||||
| 06 | 00:55 | SE 15 | 11.27 | Fog/Mist | FEW014 | 23 | 23 | 28.8 | 23.3 | 100% | 75.59 | 0.0 | |||||
| 06 | 00:35 | SE 11 | 11.27 | Fair | CLR | 24 | 23 | 94% | 23 | 75.62 | 0.0 | ||||||
| 06 | 00:15 | SE 11 | 12.87 | Fair | CLR | 24 | 23 | 94% | 23 | 75.62 | 0.0 | ||||||
| 05 | 23:55 | SE 13 | 12.87 | Fair | CLR | 24 | 23 | 94% | 23 | 75.62 | 0.0 | ||||||
| 05 | 23:35 | S 13 | 12.87 | Fair | CLR | 24 | 23 | 94% | 23 | 75.62 | 0.0 | ||||||
| 05 | 23:15 | SE 13 | 14.48 | Fair | CLR | 24 | 23 | 94% | 23 | 75.59 | 0.0 | ||||||
| 05 | 22:55 | SE 9 | 14.48 | Fair | CLR | 24 | 23 | 94% | 23 | 75.59 | 0.0 | ||||||
| 05 | 22:35 | SE 13 | 14.48 | Fair | CLR | 25 | 23 | 89% | 26 | 75.57 | 0.0 | ||||||
| 05 | 22:15 | SE 13 | 16.09 | Fair | CLR | 25 | 23 | 89% | 26 | 75.57 | 0.0 | ||||||
| 05 | 21:55 | SE 15 | 16.09 | Fair | CLR | 25 | 24 | 94% | 26 | 75.54 | 0.0 | ||||||
| 05 | 21:35 | SE 11 | 16.09 | Fair | CLR | 25 | 23 | 89% | 26 | 75.51 | 0.0 | ||||||
| 05 | 21:15 | SE 9 | 16.09 | Fair | CLR | 26 | 23 | 84% | 28 | 75.49 | 0.0 | ||||||
| 05 | 20:55 | SE 13 | 16.09 | A Few Clouds | FEW049 | 26 | 23 | 84% | 28 | 75.46 | 0.0 | ||||||
| 05 | 20:35 | S 19 G 26 | 16.09 | Mostly Cloudy | FEW037 BKN047 | 27 | 24 | 84% | 30 | 75.46 | 0.0 | ||||||
| 05 | 20:15 | S 15 | 16.09 | Overcast | BKN037 OVC044 | 27 | 24 | 84% | 30 | 75.46 | 0.0 | ||||||
| 05 | 19:55 | S 13 | 16.09 | Partly Cloudy | SCT035 | 27 | 24 | 84% | 30 | 75.44 | 0.0 | ||||||
| 05 | 19:36 | S 17 | 16.09 | Fair | CLR | 27 | 24 | 84% | 30 | 75.41 | 0.0 | ||||||
| 05 | 19:16 | S 19 | 16.09 | A Few Clouds | FEW030 | 28 | 24 | 79% | 32 | 75.39 | 0.0 | ||||||
| 05 | 18:55 | S 20 G 30 | 16.09 | A Few Clouds | FEW030 | 29 | 24 | 30.5 | 26.2 | 74% | 34 | 75.39 | 0.0 | ||||
| 05 | 18:35 | S 15 G 26 | 16.09 | Fair | CLR | 29 | 24 | 74% | 34 | 75.36 | 0.0 | ||||||
| 05 | 18:15 | S 17 | 16.09 | Fair | CLR | 29 | 24 | 74% | 34 | 75.39 | 0.0 | ||||||
| 05 | 17:55 | S 22 G 37 | 16.09 | Fair | CLR | 30 | 24 | 70% | 35 | 75.36 | 0.0 | ||||||
| 05 | 17:37 | S 17 G 31 | 16.09 | A Few Clouds | FEW032 | 30 | 24 | 70% | 35 | 75.36 | 0.0 | ||||||
| 05 | 17:15 | S 28 G 35 | 16.09 | Mostly Cloudy | BKN032 | 30 | 24 | 70% | 35 | 75.39 | 0.0 | ||||||
| 05 | 16:55 | S 26 | 16.09 | A Few Clouds | FEW034 | 30 | 24 | 70% | 35 | 75.39 | 0.0 | ||||||
| 05 | 16:35 | S 28 G 37 | 16.09 | A Few Clouds | FEW032 | 30 | 23 | 66% | 34 | 75.41 | 0.0 | ||||||
| 05 | 16:15 | S 26 G 39 | 16.09 | Partly Cloudy | FEW030 SCT037 | 30 | 24 | 70% | 35 | 75.44 | 0.0 | ||||||
| 05 | 15:55 | S 28 G 35 | 16.09 | A Few Clouds | FEW030 FEW037 | 30 | 24 | 70% | 35 | 75.44 | 0.0 | ||||||
| 05 | 15:35 | S 28 G 37 | 16.09 | Fair | CLR | 30 | 23 | 66% | 34 | 75.49 | 0.0 | ||||||
| 05 | 15:16 | S 26 G 35 | 16.09 | Partly Cloudy | FEW026 SCT036 | 30 | 24 | 70% | 35 | 75.49 | 0.0 | ||||||
| 05 | 14:55 | S 24 | 16.09 | Overcast | SCT026 OVC034 | 28 | 23 | 74% | 31 | 75.54 | 0.0 | ||||||
| 05 | 14:35 | S 22 G 41 | 16.09 | Mostly Cloudy | FEW028 BKN036 | 28 | 23 | 74% | 31 | 75.57 | 0.0 | ||||||
| 05 | 14:15 | SW 26 G 31 | 16.09 | Overcast | BKN028 OVC036 | 28 | 23 | 74% | 31 | 75.57 | 0.0 | ||||||
| 05 | 13:55 | SW 24 | 16.09 | Overcast | BKN024 OVC031 | 27 | 23 | 79% | 30 | 75.59 | 0.0 | ||||||
| 05 | 13:35 | S 20 G 28 | 16.09 | Overcast | OVC022 | 27 | 23 | 79% | 30 | 75.59 | 0.0 | ||||||
| 05 | 13:15 | SW 13 | 16.09 | Overcast | BKN020 OVC028 | 27 | 23 | 79% | 30 | 75.59 | 0.0 | ||||||
| 05 | 12:55 | S 24 G 31 | 16.09 | Overcast | BKN020 OVC028 | 27 | 23 | 26.7 | 21.8 | 79% | 30 | 75.59 | 0.0 | ||||
| 05 | 12:35 | S 26 | 16.09 | Overcast | OVC017 | 26 | 23 | 84% | 28 | 75.62 | 0.0 | ||||||
| 05 | 12:15 | S 13 | 16.09 | Overcast | OVC017 | 25 | 23 | 89% | 26 | 75.62 | 0.0 | ||||||
| 05 | 11:55 | SW 22 G 31 | 16.09 | Overcast | BKN017 OVC024 | 25 | 23 | 89% | 26 | 75.64 | 0.0 | ||||||
| 05 | 11:35 | S 24 | 16.09 | Overcast | OVC017 | 25 | 22 | 83% | 26 | 75.64 | 0.0 | ||||||
| 05 | 11:15 | S 22 G 39 | 16.09 | Overcast | OVC015 | 25 | 22 | 83% | 26 | 75.64 | 0.0 | ||||||
| 05 | 10:56 | S 20 G 30 | 16.09 | Overcast | OVC015 | 24 | 22 | 89% | 24 | 75.64 | 0.0 | ||||||
| 05 | 10:35 | S 22 | 16.09 | Overcast | OVC017 | 24 | 22 | 89% | 24 | 75.64 | 0.0 | ||||||
| 05 | 10:15 | S 17 G 31 | 16.09 | Overcast | OVC017 | 24 | 22 | 89% | 24 | 75.64 | 0.0 | ||||||
| 05 | 09:55 | S 19 G 28 | 16.09 | Overcast | SCT015 OVC021 | 24 | 22 | 89% | 24 | 75.64 | 0.0 | ||||||
| 05 | 09:35 | S 22 G 31 | 16.09 | Overcast | OVC015 | 24 | 22 | 89% | 24 | 75.62 | 0.0 | ||||||
| 05 | 09:15 | S 26 G 31 | 16.09 | Overcast | OVC015 | 23 | 22 | 94% | 75.62 | 0.0 | |||||||
| 05 | 08:55 | S 20 G 26 | 16.09 | Overcast | OVC015 | 23 | 21 | 89% | 75.59 | 0.0 | |||||||
| 05 | 08:35 | S 17 | 16.09 | Overcast | OVC015 | 23 | 21 | 89% | 75.62 | 0.0 | |||||||
| 05 | 08:15 | S 19 G 33 | 16.09 | Overcast | BKN017 OVC022 | 23 | 21 | 89% | 75.59 | 0.0 | |||||||
| 05 | 07:55 | S 19 G 30 | 16.09 | Overcast | OVC019 | 22 | 21 | 94% | 75.59 | 0.0 | |||||||
| 05 | 07:35 | S 20 G 28 | 16.09 | Overcast | OVC017 | 22 | 21 | 94% | 75.57 | 0.0 | |||||||
| 05 | 07:15 | S 19 | 16.09 | Overcast | OVC017 | 22 | 20 | 88% | 75.57 | 0.0 | |||||||
| 05 | 06:55 | S 15 | 16.09 | Overcast | OVC019 | 22 | 20 | 22.3 | 21.3 | 88% | 75.57 | 0.0 | |||||
| 05 | 06:35 | S 20 | 16.09 | Overcast | OVC019 | 22 | 20 | 88% | 75.51 | 0.0 | |||||||
| 05 | 06:15 | S 19 | 16.09 | Overcast | OVC019 | 22 | 20 | 88% | 75.54 | 0.0 | |||||||
| 05 | 05:55 | S 19 G 30 | 16.09 | Overcast | OVC019 | 22 | 20 | 88% | 75.54 | 0.0 | |||||||
| 05 | 05:35 | S 22 G 31 | 16.09 | Overcast | OVC019 | 22 | 20 | 88% | 75.54 | 0.0 | |||||||
| 05 | 05:15 | S 20 | 16.09 | Overcast | OVC017 | 22 | 20 | 88% | 75.54 | 0.0 | |||||||
| 05 | 04:55 | S 19 G 33 | 16.09 | Overcast | OVC017 | 22 | 20 | 88% | 75.54 | 0.0 | |||||||
| 05 | 04:35 | S 20 | 16.09 | Overcast | OVC017 | 22 | 20 | 88% | 75.57 | 0.0 | |||||||
| 05 | 04:15 | S 19 G 26 | 16.09 | Overcast | OVC017 | 22 | 20 | 88% | 75.57 | 0.0 | |||||||
| 05 | 03:55 | S 15 | 16.09 | Overcast | OVC017 | 22 | 20 | 88% | 75.57 | 0.0 | |||||||
| 05 | 03:35 | S 15 | 16.09 | Overcast | OVC017 | 22 | 20 | 88% | 75.59 | 0.0 | |||||||
| 05 | 03:15 | S 15 | 16.09 | Overcast | OVC017 | 22 | 20 | 88% | 75.62 | 0.0 | |||||||
| 05 | 02:55 | S 22 | 16.09 | Overcast | OVC017 | 22 | 20 | 88% | 75.62 | 0.0 | |||||||
| 05 | 02:35 | S 19 G 30 | 16.09 | Overcast | OVC017 | 22 | 20 | 88% | 75.64 | 0.0 | |||||||
| 05 | 02:15 | S 17 | 16.09 | Overcast | OVC019 | 22 | 20 | 88% | 75.67 | 0.0 | |||||||
| 05 | 01:55 | S 17 | 16.09 | Overcast | OVC019 | 22 | 20 | 88% | 75.67 | 0.0 | |||||||
| 05 | 01:35 | S 15 | 16.09 | Overcast | OVC019 | 22 | 20 | 88% | 75.69 | 0.0 | |||||||
| 05 | 01:16 | S 19 | 16.09 | Mostly Cloudy | BKN019 | 21 | 19 | 88% | 75.69 | 0.0 | |||||||
| 05 | 00:55 | S 19 G 30 | 16.09 | Mostly Cloudy | BKN019 | 21 | 19 | 26.7 | 21.5 | 88% | 75.67 | 0.0 | |||||
| 05 | 00:35 | S 17 G 26 | 16.09 | Mostly Cloudy | BKN021 | 22 | 19 | 83% | 75.69 | 0.0 | |||||||
| 05 | 00:15 | S 22 | 16.09 | Partly Cloudy | SCT021 | 22 | 20 | 88% | 75.69 | 0.0 | |||||||
| 04 | 23:55 | S 24 G 31 | 16.09 | Partly Cloudy | SCT023 | 22 | 19 | 83% | 75.67 | 0.0 | |||||||
| 04 | 23:35 | S 22 G 33 | 16.09 | Fair | CLR | 23 | 20 | 83% | 75.67 | 0.0 | |||||||
| 04 | 23:15 | S 22 G 30 | 16.09 | Fair | CLR | 23 | 20 | 83% | 75.69 | 0.0 | |||||||
| 04 | 22:55 | S 22 G 31 | 16.09 | Fair | CLR | 23 | 20 | 83% | 75.69 | 0.0 | |||||||
| 04 | 22:35 | S 19 | 16.09 | Fair | CLR | 23 | 20 | 83% | 75.69 | 0.0 | |||||||
| 04 | 22:15 | S 19 | 16.09 | Fair | CLR | 23 | 20 | 83% | 75.69 | 0.0 | |||||||
| 04 | 21:55 | S 19 | 16.09 | Fair | CLR | 23 | 20 | 83% | 75.67 | 0.0 | |||||||
| 04 | 21:35 | S 17 | 16.09 | Fair | CLR | 23 | 20 | 83% | 75.67 | 0.0 | |||||||
| 04 | 21:15 | S 17 | 16.09 | Fair | CLR | 24 | 20 | 78% | 24 | 75.67 | 0.0 | ||||||
| 04 | 20:55 | S 17 | 16.09 | Fair | CLR | 24 | 20 | 78% | 24 | 75.67 | 0.0 | ||||||
| 04 | 20:35 | S 17 | 16.09 | Partly Cloudy | SCT047 | 24 | 20 | 78% | 24 | 75.64 | 0.0 | ||||||
| 04 | 20:15 | S 19 | 16.09 | Overcast | OVC049 | 25 | 19 | 69% | 26 | 75.64 | 0.0 | ||||||
| 04 | 19:55 | S 20 G 31 | 16.09 | Mostly Cloudy | BKN049 | 25 | 19 | 69% | 26 | 75.64 | 0.0 | ||||||
| 04 | 19:36 | S 20 | 16.09 | Overcast | OVC049 | 26 | 19 | 65% | 27 | 75.62 | 0.0 | ||||||
| 04 | 19:15 | S 20 | 16.09 | Overcast | OVC049 | 26 | 18 | 61% | 27 | 75.64 | 0.0 | ||||||
| 04 | 18:55 | S 19 G 26 | 16.09 | Overcast | OVC047 | 27 | 19 | 28.2 | 25.6 | 62% | 28 | 75.64 | 0.0 | ||||
| 04 | 18:35 | S 22 G 33 | 16.09 | Overcast | OVC047 | 27 | 18 | 58% | 28 | 75.67 | 0.0 | ||||||
| 04 | 18:15 | S 20 G 33 | 16.09 | Mostly Cloudy | BKN047 | 27 | 19 | 62% | 28 | 75.67 | 0.0 | ||||||
| 04 | 17:55 | S 20 G 35 | 16.09 | Mostly Cloudy | BKN047 | 28 | 18 | 55% | 29 | 75.67 | 0.0 | ||||||
| 04 | 17:35 | S 19 | 16.09 | Mostly Cloudy | BKN045 | 28 | 19 | 58% | 29 | 75.69 | 0.0 | ||||||
| 04 | 17:15 | S 22 G 33 | 16.09 | A Few Clouds | FEW045 | 28 | 19 | 58% | 29 | 75.72 | 0.0 | ||||||
| Date | Time (cdt) | Wind (kph) | Vis. (km) | Weather | Sky Cond. | Air | Dwpt | Max. | Min. | Relative Humidity | Wind Chill (°C) | Heat Index (°C) | altimeter (cm) | sea level (mb) | 1 hr | 3 hr | 6 hr |
| 6 hour | |||||||||||||||||
| Temperature (ºC) | Pressure | Precipitation (cm) | |||||||||||||||